sensor_id;sensor_type;location;lat;lon;timestamp;P1;durP1;ratioP1;P2;durP2;ratioP2
64387;SDS011;50709;52.648;4.764;2023-05-07T00:02:16;21.95;;;14.98;;
64387;SDS011;50709;52.648;4.764;2023-05-07T00:04:41;24.55;;;16.77;;
64387;SDS011;50709;52.648;4.764;2023-05-07T00:07:07;25.58;;;18.30;;
64387;SDS011;50709;52.648;4.764;2023-05-07T00:09:32;25.85;;;16.75;;
64387;SDS011;50709;52.648;4.764;2023-05-07T00:11:58;25.42;;;15.25;;
64387;SDS011;50709;52.648;4.764;2023-05-07T00:14:23;25.70;;;16.75;;
64387;SDS011;50709;52.648;4.764;2023-05-07T00:16:48;26.25;;;17.90;;
64387;SDS011;50709;52.648;4.764;2023-05-07T00:19:14;24.48;;;16.50;;
64387;SDS011;50709;52.648;4.764;2023-05-07T00:21:39;27.02;;;17.48;;
64387;SDS011;50709;52.648;4.764;2023-05-07T00:24:06;26.60;;;17.27;;
64387;SDS011;50709;52.648;4.764;2023-05-07T00:26:31;25.88;;;16.85;;
64387;SDS011;50709;52.648;4.764;2023-05-07T00:28:57;25.27;;;16.17;;
64387;SDS011;50709;52.648;4.764;2023-05-07T00:31:22;24.00;;;14.98;;
64387;SDS011;50709;52.648;4.764;2023-05-07T00:33:47;22.85;;;15.00;;
64387;SDS011;50709;52.648;4.764;2023-05-07T00:36:13;24.98;;;16.83;;
64387;SDS011;50709;52.648;4.764;2023-05-07T00:38:38;24.50;;;15.68;;
64387;SDS011;50709;52.648;4.764;2023-05-07T00:41:04;24.48;;;15.35;;
64387;SDS011;50709;52.648;4.764;2023-05-07T00:43:30;25.08;;;15.38;;
64387;SDS011;50709;52.648;4.764;2023-05-07T00:45:55;24.10;;;15.52;;
64387;SDS011;50709;52.648;4.764;2023-05-07T00:48:21;26.45;;;17.30;;
64387;SDS011;50709;52.648;4.764;2023-05-07T00:50:46;25.38;;;16.75;;
64387;SDS011;50709;52.648;4.764;2023-05-07T00:53:13;24.25;;;16.58;;
64387;SDS011;50709;52.648;4.764;2023-05-07T00:55:39;24.60;;;16.33;;
64387;SDS011;50709;52.648;4.764;2023-05-07T00:58:05;27.13;;;16.40;;
64387;SDS011;50709;52.648;4.764;2023-05-07T01:00:31;22.02;;;15.85;;
64387;SDS011;50709;52.648;4.764;2023-05-07T01:02:56;24.40;;;14.23;;
64387;SDS011;50709;52.648;4.764;2023-05-07T01:05:23;30.20;;;17.70;;
64387;SDS011;50709;52.648;4.764;2023-05-07T01:07:49;25.02;;;16.88;;
64387;SDS011;50709;52.648;4.764;2023-05-07T01:10:18;27.17;;;17.42;;
64387;SDS011;50709;52.648;4.764;2023-05-07T01:12:44;27.92;;;17.45;;
64387;SDS011;50709;52.648;4.764;2023-05-07T01:15:10;24.73;;;15.88;;
64387;SDS011;50709;52.648;4.764;2023-05-07T01:17:36;27.08;;;16.77;;
64387;SDS011;50709;52.648;4.764;2023-05-07T01:20:06;25.55;;;17.40;;
64387;SDS011;50709;52.648;4.764;2023-05-07T01:22:36;27.40;;;17.48;;
64387;SDS011;50709;52.648;4.764;2023-05-07T01:25:03;27.20;;;16.63;;
64387;SDS011;50709;52.648;4.764;2023-05-07T01:27:30;26.95;;;17.58;;
64387;SDS011;50709;52.648;4.764;2023-05-07T01:29:55;27.60;;;17.15;;
64387;SDS011;50709;52.648;4.764;2023-05-07T01:32:24;28.23;;;17.27;;
64387;SDS011;50709;52.648;4.764;2023-05-07T01:34:57;25.80;;;16.05;;
64387;SDS011;50709;52.648;4.764;2023-05-07T01:37:23;24.75;;;16.58;;
64387;SDS011;50709;52.648;4.764;2023-05-07T01:39:50;30.77;;;19.55;;
64387;SDS011;50709;52.648;4.764;2023-05-07T01:42:15;31.33;;;18.90;;
64387;SDS011;50709;52.648;4.764;2023-05-07T01:44:40;29.50;;;17.63;;
64387;SDS011;50709;52.648;4.764;2023-05-07T01:47:06;30.65;;;17.83;;
64387;SDS011;50709;52.648;4.764;2023-05-07T01:49:33;30.27;;;19.05;;
64387;SDS011;50709;52.648;4.764;2023-05-07T01:51:59;29.05;;;18.83;;
64387;SDS011;50709;52.648;4.764;2023-05-07T01:54:26;33.72;;;20.30;;
64387;SDS011;50709;52.648;4.764;2023-05-07T01:56:56;30.42;;;18.67;;
64387;SDS011;50709;52.648;4.764;2023-05-07T01:59:22;33.15;;;20.58;;
64387;SDS011;50709;52.648;4.764;2023-05-07T02:01:47;30.27;;;18.20;;
64387;SDS011;50709;52.648;4.764;2023-05-07T02:04:12;37.60;;;21.60;;
64387;SDS011;50709;52.648;4.764;2023-05-07T02:06:38;34.28;;;18.38;;
64387;SDS011;50709;52.648;4.764;2023-05-07T02:09:03;27.25;;;17.92;;
64387;SDS011;50709;52.648;4.764;2023-05-07T02:11:29;32.08;;;19.38;;
64387;SDS011;50709;52.648;4.764;2023-05-07T02:13:54;32.15;;;19.92;;
64387;SDS011;50709;52.648;4.764;2023-05-07T02:16:20;33.67;;;19.75;;
64387;SDS011;50709;52.648;4.764;2023-05-07T02:18:46;35.60;;;20.15;;
64387;SDS011;50709;52.648;4.764;2023-05-07T02:21:11;34.75;;;20.88;;
64387;SDS011;50709;52.648;4.764;2023-05-07T02:23:37;29.33;;;19.38;;
64387;SDS011;50709;52.648;4.764;2023-05-07T02:26:03;34.05;;;22.00;;
64387;SDS011;50709;52.648;4.764;2023-05-07T02:28:29;31.25;;;19.45;;
64387;SDS011;50709;52.648;4.764;2023-05-07T02:30:54;30.35;;;19.45;;
64387;SDS011;50709;52.648;4.764;2023-05-07T02:33:20;30.33;;;19.00;;
64387;SDS011;50709;52.648;4.764;2023-05-07T02:35:45;32.42;;;20.80;;
64387;SDS011;50709;52.648;4.764;2023-05-07T02:38:11;37.60;;;23.27;;
64387;SDS011;50709;52.648;4.764;2023-05-07T02:40:36;29.92;;;20.08;;
64387;SDS011;50709;52.648;4.764;2023-05-07T02:43:04;33.80;;;21.40;;
64387;SDS011;50709;52.648;4.764;2023-05-07T02:45:30;34.90;;;20.27;;
64387;SDS011;50709;52.648;4.764;2023-05-07T02:47:56;36.45;;;21.55;;
64387;SDS011;50709;52.648;4.764;2023-05-07T02:50:22;33.33;;;20.08;;
64387;SDS011;50709;52.648;4.764;2023-05-07T02:52:47;29.45;;;18.98;;
64387;SDS011;50709;52.648;4.764;2023-05-07T02:55:13;29.05;;;18.60;;
64387;SDS011;50709;52.648;4.764;2023-05-07T02:57:38;32.05;;;21.02;;
64387;SDS011;50709;52.648;4.764;2023-05-07T03:02:58;27.67;;;18.00;;
64387;SDS011;50709;52.648;4.764;2023-05-07T03:05:23;28.25;;;18.00;;
64387;SDS011;50709;52.648;4.764;2023-05-07T03:07:49;28.27;;;18.35;;
64387;SDS011;50709;52.648;4.764;2023-05-07T03:10:14;31.13;;;17.63;;
64387;SDS011;50709;52.648;4.764;2023-05-07T03:12:40;26.33;;;17.38;;
64387;SDS011;50709;52.648;4.764;2023-05-07T03:15:05;29.92;;;17.52;;
64387;SDS011;50709;52.648;4.764;2023-05-07T03:17:31;23.27;;;15.02;;
64387;SDS011;50709;52.648;4.764;2023-05-07T03:19:57;23.98;;;16.73;;
64387;SDS011;50709;52.648;4.764;2023-05-07T03:22:22;25.52;;;16.67;;
64387;SDS011;50709;52.648;4.764;2023-05-07T03:24:47;22.77;;;15.55;;
64387;SDS011;50709;52.648;4.764;2023-05-07T03:27:14;25.02;;;16.52;;
64387;SDS011;50709;52.648;4.764;2023-05-07T03:29:39;22.30;;;14.90;;
64387;SDS011;50709;52.648;4.764;2023-05-07T03:32:05;23.88;;;15.57;;
64387;SDS011;50709;52.648;4.764;2023-05-07T03:34:30;24.48;;;15.88;;
64387;SDS011;50709;52.648;4.764;2023-05-07T03:36:56;21.50;;;14.80;;
64387;SDS011;50709;52.648;4.764;2023-05-07T03:39:21;24.80;;;15.68;;
64387;SDS011;50709;52.648;4.764;2023-05-07T03:41:47;26.08;;;15.48;;
64387;SDS011;50709;52.648;4.764;2023-05-07T03:44:12;22.92;;;15.13;;
64387;SDS011;50709;52.648;4.764;2023-05-07T03:46:38;22.50;;;14.60;;
64387;SDS011;50709;52.648;4.764;2023-05-07T03:49:03;22.65;;;15.07;;
64387;SDS011;50709;52.648;4.764;2023-05-07T03:51:28;20.88;;;14.23;;
64387;SDS011;50709;52.648;4.764;2023-05-07T03:53:55;22.95;;;15.18;;
64387;SDS011;50709;52.648;4.764;2023-05-07T03:56:22;19.67;;;13.45;;
64387;SDS011;50709;52.648;4.764;2023-05-07T03:58:48;21.60;;;14.43;;
64387;SDS011;50709;52.648;4.764;2023-05-07T04:01:13;21.23;;;14.65;;
64387;SDS011;50709;52.648;4.764;2023-05-07T04:03:39;21.13;;;13.93;;
64387;SDS011;50709;52.648;4.764;2023-05-07T04:06:04;21.92;;;13.25;;
64387;SDS011;50709;52.648;4.764;2023-05-07T04:08:30;20.45;;;13.70;;
64387;SDS011;50709;52.648;4.764;2023-05-07T04:10:58;23.48;;;14.52;;
64387;SDS011;50709;52.648;4.764;2023-05-07T04:13:24;21.10;;;14.52;;
64387;SDS011;50709;52.648;4.764;2023-05-07T04:15:50;21.60;;;13.48;;
64387;SDS011;50709;52.648;4.764;2023-05-07T04:18:16;21.02;;;13.00;;
64387;SDS011;50709;52.648;4.764;2023-05-07T04:20:42;23.30;;;14.88;;
64387;SDS011;50709;52.648;4.764;2023-05-07T04:23:07;18.40;;;12.95;;
64387;SDS011;50709;52.648;4.764;2023-05-07T04:25:33;20.58;;;13.05;;
64387;SDS011;50709;52.648;4.764;2023-05-07T04:27:59;19.23;;;13.45;;
64387;SDS011;50709;52.648;4.764;2023-05-07T04:30:24;17.70;;;12.90;;
64387;SDS011;50709;52.648;4.764;2023-05-07T04:32:50;19.73;;;12.77;;
64387;SDS011;50709;52.648;4.764;2023-05-07T04:35:16;19.30;;;12.38;;
64387;SDS011;50709;52.648;4.764;2023-05-07T04:37:42;16.35;;;11.82;;
64387;SDS011;50709;52.648;4.764;2023-05-07T04:40:07;20.35;;;12.52;;
64387;SDS011;50709;52.648;4.764;2023-05-07T04:42:33;16.40;;;12.15;;
64387;SDS011;50709;52.648;4.764;2023-05-07T04:44:58;16.55;;;12.30;;
64387;SDS011;50709;52.648;4.764;2023-05-07T04:47:25;17.23;;;12.57;;
64387;SDS011;50709;52.648;4.764;2023-05-07T04:49:50;15.68;;;12.07;;
64387;SDS011;50709;52.648;4.764;2023-05-07T04:52:15;16.70;;;11.27;;
64387;SDS011;50709;52.648;4.764;2023-05-07T04:54:41;17.73;;;11.52;;
64387;SDS011;50709;52.648;4.764;2023-05-07T04:57:07;15.15;;;11.13;;
64387;SDS011;50709;52.648;4.764;2023-05-07T04:59:32;16.25;;;11.48;;
64387;SDS011;50709;52.648;4.764;2023-05-07T05:01:58;16.50;;;10.98;;
64387;SDS011;50709;52.648;4.764;2023-05-07T05:04:23;13.98;;;10.30;;
64387;SDS011;50709;52.648;4.764;2023-05-07T05:06:49;19.08;;;11.77;;
64387;SDS011;50709;52.648;4.764;2023-05-07T05:09:14;15.60;;;11.27;;
64387;SDS011;50709;52.648;4.764;2023-05-07T05:11:40;14.68;;;10.68;;
64387;SDS011;50709;52.648;4.764;2023-05-07T05:14:06;15.98;;;10.60;;
64387;SDS011;50709;52.648;4.764;2023-05-07T05:16:31;15.73;;;10.52;;
64387;SDS011;50709;52.648;4.764;2023-05-07T05:18:57;14.45;;;10.90;;
64387;SDS011;50709;52.648;4.764;2023-05-07T05:21:23;15.95;;;10.40;;
64387;SDS011;50709;52.648;4.764;2023-05-07T05:23:48;12.88;;;9.95;;
64387;SDS011;50709;52.648;4.764;2023-05-07T05:26:14;16.52;;;10.30;;
64387;SDS011;50709;52.648;4.764;2023-05-07T05:28:39;15.43;;;10.10;;
64387;SDS011;50709;52.648;4.764;2023-05-07T05:31:05;15.40;;;10.65;;
64387;SDS011;50709;52.648;4.764;2023-05-07T05:33:30;12.80;;;9.45;;
64387;SDS011;50709;52.648;4.764;2023-05-07T05:35:55;14.60;;;10.85;;
64387;SDS011;50709;52.648;4.764;2023-05-07T05:38:21;14.95;;;10.63;;
64387;SDS011;50709;52.648;4.764;2023-05-07T05:40:46;13.05;;;9.77;;
64387;SDS011;50709;52.648;4.764;2023-05-07T05:43:13;12.23;;;9.32;;
64387;SDS011;50709;52.648;4.764;2023-05-07T05:45:38;14.00;;;10.45;;
64387;SDS011;50709;52.648;4.764;2023-05-07T05:48:04;15.23;;;10.25;;
64387;SDS011;50709;52.648;4.764;2023-05-07T05:50:29;12.23;;;9.55;;
64387;SDS011;50709;52.648;4.764;2023-05-07T05:52:55;13.60;;;9.80;;
64387;SDS011;50709;52.648;4.764;2023-05-07T05:55:21;13.80;;;10.00;;
64387;SDS011;50709;52.648;4.764;2023-05-07T05:57:47;14.48;;;9.90;;
64387;SDS011;50709;52.648;4.764;2023-05-07T06:00:13;15.82;;;10.48;;
64387;SDS011;50709;52.648;4.764;2023-05-07T06:02:38;14.20;;;10.80;;
64387;SDS011;50709;52.648;4.764;2023-05-07T06:05:04;14.25;;;10.93;;
64387;SDS011;50709;52.648;4.764;2023-05-07T06:07:29;16.55;;;11.30;;
64387;SDS011;50709;52.648;4.764;2023-05-07T06:09:55;16.75;;;11.88;;
64387;SDS011;50709;52.648;4.764;2023-05-07T06:12:20;16.90;;;11.50;;
64387;SDS011;50709;52.648;4.764;2023-05-07T06:14:46;17.27;;;13.45;;
64387;SDS011;50709;52.648;4.764;2023-05-07T06:17:11;16.25;;;12.05;;
64387;SDS011;50709;52.648;4.764;2023-05-07T06:19:37;22.42;;;14.05;;
64387;SDS011;50709;52.648;4.764;2023-05-07T06:22:02;19.70;;;14.93;;
64387;SDS011;50709;52.648;4.764;2023-05-07T06:24:28;20.58;;;13.30;;
64387;SDS011;50709;52.648;4.764;2023-05-07T06:26:53;20.67;;;14.85;;
64387;SDS011;50709;52.648;4.764;2023-05-07T06:29:19;22.05;;;13.98;;
64387;SDS011;50709;52.648;4.764;2023-05-07T06:31:44;24.17;;;17.42;;
64387;SDS011;50709;52.648;4.764;2023-05-07T06:34:10;26.25;;;18.48;;
64387;SDS011;50709;52.648;4.764;2023-05-07T06:36:39;22.92;;;16.67;;
64387;SDS011;50709;52.648;4.764;2023-05-07T06:39:05;25.05;;;17.25;;
64387;SDS011;50709;52.648;4.764;2023-05-07T06:41:30;28.25;;;19.50;;
64387;SDS011;50709;52.648;4.764;2023-05-07T06:43:55;26.55;;;18.30;;
64387;SDS011;50709;52.648;4.764;2023-05-07T06:46:21;27.42;;;18.55;;
64387;SDS011;50709;52.648;4.764;2023-05-07T06:48:46;28.00;;;20.17;;
64387;SDS011;50709;52.648;4.764;2023-05-07T06:51:11;33.78;;;21.90;;
64387;SDS011;50709;52.648;4.764;2023-05-07T06:53:37;28.30;;;19.35;;
64387;SDS011;50709;52.648;4.764;2023-05-07T06:56:02;26.35;;;18.25;;
64387;SDS011;50709;52.648;4.764;2023-05-07T06:58:28;26.88;;;17.40;;
64387;SDS011;50709;52.648;4.764;2023-05-07T07:00:53;31.52;;;21.23;;
64387;SDS011;50709;52.648;4.764;2023-05-07T07:03:18;26.45;;;18.88;;
64387;SDS011;50709;52.648;4.764;2023-05-07T07:05:44;23.98;;;18.80;;
64387;SDS011;50709;52.648;4.764;2023-05-07T07:08:09;29.52;;;19.27;;
64387;SDS011;50709;52.648;4.764;2023-05-07T07:10:35;25.98;;;18.95;;
64387;SDS011;50709;52.648;4.764;2023-05-07T07:13:00;28.45;;;21.48;;
64387;SDS011;50709;52.648;4.764;2023-05-07T07:15:26;25.90;;;19.20;;
64387;SDS011;50709;52.648;4.764;2023-05-07T07:17:51;30.33;;;18.55;;
64387;SDS011;50709;52.648;4.764;2023-05-07T07:20:16;28.30;;;18.73;;
64387;SDS011;50709;52.648;4.764;2023-05-07T07:22:42;26.55;;;18.58;;
64387;SDS011;50709;52.648;4.764;2023-05-07T07:25:08;28.63;;;20.25;;
64387;SDS011;50709;52.648;4.764;2023-05-07T07:27:33;24.75;;;20.02;;
64387;SDS011;50709;52.648;4.764;2023-05-07T07:29:59;25.77;;;17.60;;
64387;SDS011;50709;52.648;4.764;2023-05-07T07:32:25;27.15;;;18.63;;
64387;SDS011;50709;52.648;4.764;2023-05-07T07:34:50;27.42;;;18.45;;
64387;SDS011;50709;52.648;4.764;2023-05-07T07:37:16;26.35;;;17.83;;
64387;SDS011;50709;52.648;4.764;2023-05-07T07:39:41;30.27;;;20.85;;
64387;SDS011;50709;52.648;4.764;2023-05-07T07:42:07;26.52;;;18.65;;
64387;SDS011;50709;52.648;4.764;2023-05-07T07:44:32;25.83;;;18.13;;
64387;SDS011;50709;52.648;4.764;2023-05-07T07:46:58;25.40;;;16.92;;
64387;SDS011;50709;52.648;4.764;2023-05-07T07:49:24;27.30;;;18.33;;
64387;SDS011;50709;52.648;4.764;2023-05-07T07:51:49;28.55;;;19.25;;
64387;SDS011;50709;52.648;4.764;2023-05-07T07:54:14;27.45;;;19.60;;
64387;SDS011;50709;52.648;4.764;2023-05-07T07:56:40;29.75;;;24.88;;
64387;SDS011;50709;52.648;4.764;2023-05-07T07:59:08;29.08;;;21.13;;
64387;SDS011;50709;52.648;4.764;2023-05-07T08:01:33;25.20;;;18.60;;
64387;SDS011;50709;52.648;4.764;2023-05-07T08:03:59;24.92;;;18.45;;
64387;SDS011;50709;52.648;4.764;2023-05-07T08:06:24;24.58;;;18.67;;
64387;SDS011;50709;52.648;4.764;2023-05-07T08:08:50;24.98;;;17.83;;
64387;SDS011;50709;52.648;4.764;2023-05-07T08:11:16;22.98;;;17.67;;
64387;SDS011;50709;52.648;4.764;2023-05-07T08:13:42;24.88;;;19.90;;
64387;SDS011;50709;52.648;4.764;2023-05-07T08:16:08;22.92;;;17.80;;
64387;SDS011;50709;52.648;4.764;2023-05-07T08:18:33;24.10;;;18.00;;
64387;SDS011;50709;52.648;4.764;2023-05-07T08:20:59;22.60;;;17.70;;
64387;SDS011;50709;52.648;4.764;2023-05-07T08:23:24;25.08;;;19.40;;
64387;SDS011;50709;52.648;4.764;2023-05-07T08:25:49;22.73;;;18.23;;
64387;SDS011;50709;52.648;4.764;2023-05-07T08:28:16;27.42;;;18.55;;
64387;SDS011;50709;52.648;4.764;2023-05-07T08:30:41;28.80;;;21.23;;
64387;SDS011;50709;52.648;4.764;2023-05-07T08:33:08;23.60;;;18.15;;
64387;SDS011;50709;52.648;4.764;2023-05-07T08:35:34;25.00;;;19.88;;
64387;SDS011;50709;52.648;4.764;2023-05-07T08:37:59;24.55;;;17.77;;
64387;SDS011;50709;52.648;4.764;2023-05-07T08:40:25;33.42;;;21.30;;
64387;SDS011;50709;52.648;4.764;2023-05-07T08:42:52;30.92;;;19.90;;
64387;SDS011;50709;52.648;4.764;2023-05-07T08:45:18;25.80;;;18.45;;
64387;SDS011;50709;52.648;4.764;2023-05-07T08:47:49;25.88;;;18.83;;
64387;SDS011;50709;52.648;4.764;2023-05-07T08:50:17;25.95;;;17.98;;
64387;SDS011;50709;52.648;4.764;2023-05-07T08:52:45;22.95;;;17.45;;
64387;SDS011;50709;52.648;4.764;2023-05-07T08:55:10;23.02;;;17.73;;
64387;SDS011;50709;52.648;4.764;2023-05-07T08:57:37;23.52;;;17.88;;
64387;SDS011;50709;52.648;4.764;2023-05-07T09:00:03;24.30;;;18.45;;
64387;SDS011;50709;52.648;4.764;2023-05-07T09:02:31;22.77;;;17.98;;
64387;SDS011;50709;52.648;4.764;2023-05-07T09:04:57;22.13;;;16.63;;
64387;SDS011;50709;52.648;4.764;2023-05-07T09:07:22;23.08;;;16.08;;
64387;SDS011;50709;52.648;4.764;2023-05-07T09:09:48;21.27;;;16.17;;
64387;SDS011;50709;52.648;4.764;2023-05-07T09:12:14;22.40;;;16.77;;
64387;SDS011;50709;52.648;4.764;2023-05-07T09:14:40;21.90;;;16.08;;
64387;SDS011;50709;52.648;4.764;2023-05-07T09:17:05;21.95;;;17.45;;
64387;SDS011;50709;52.648;4.764;2023-05-07T09:19:30;21.52;;;16.13;;
64387;SDS011;50709;52.648;4.764;2023-05-07T09:22:03;21.77;;;17.65;;
64387;SDS011;50709;52.648;4.764;2023-05-07T09:24:29;24.60;;;19.25;;
64387;SDS011;50709;52.648;4.764;2023-05-07T09:26:59;26.52;;;17.65;;
64387;SDS011;50709;52.648;4.764;2023-05-07T09:29:26;25.13;;;17.33;;
64387;SDS011;50709;52.648;4.764;2023-05-07T09:31:54;23.95;;;17.55;;
64387;SDS011;50709;52.648;4.764;2023-05-07T09:34:19;26.15;;;19.23;;
64387;SDS011;50709;52.648;4.764;2023-05-07T09:36:45;25.17;;;17.38;;
64387;SDS011;50709;52.648;4.764;2023-05-07T09:39:10;26.42;;;20.00;;
64387;SDS011;50709;52.648;4.764;2023-05-07T09:41:48;25.67;;;18.25;;
64387;SDS011;50709;52.648;4.764;2023-05-07T09:46:44;26.13;;;16.92;;
64387;SDS011;50709;52.648;4.764;2023-05-07T09:49:13;24.83;;;16.67;;
64387;SDS011;50709;52.648;4.764;2023-05-07T09:51:48;25.88;;;16.88;;
64387;SDS011;50709;52.648;4.764;2023-05-07T09:54:16;24.10;;;16.30;;
64387;SDS011;50709;52.648;4.764;2023-05-07T09:56:42;23.88;;;17.13;;
64387;SDS011;50709;52.648;4.764;2023-05-07T09:59:13;25.98;;;18.08;;
64387;SDS011;50709;52.648;4.764;2023-05-07T10:01:40;26.42;;;18.42;;
64387;SDS011;50709;52.648;4.764;2023-05-07T10:04:07;24.65;;;17.08;;
64387;SDS011;50709;52.648;4.764;2023-05-07T10:06:34;27.45;;;19.63;;
64387;SDS011;50709;52.648;4.764;2023-05-07T10:09:00;26.50;;;17.13;;
64387;SDS011;50709;52.648;4.764;2023-05-07T10:11:27;29.48;;;20.02;;
64387;SDS011;50709;52.648;4.764;2023-05-07T10:13:53;25.88;;;18.13;;
64387;SDS011;50709;52.648;4.764;2023-05-07T10:16:18;26.08;;;17.60;;
64387;SDS011;50709;52.648;4.764;2023-05-07T10:18:45;25.25;;;18.33;;
64387;SDS011;50709;52.648;4.764;2023-05-07T10:21:11;23.38;;;17.50;;
64387;SDS011;50709;52.648;4.764;2023-05-07T10:26:31;28.85;;;19.60;;
64387;SDS011;50709;52.648;4.764;2023-05-07T10:29:02;27.48;;;18.58;;
64387;SDS011;50709;52.648;4.764;2023-05-07T10:34:24;27.10;;;18.65;;
64387;SDS011;50709;52.648;4.764;2023-05-07T10:36:53;26.52;;;19.73;;
64387;SDS011;50709;52.648;4.764;2023-05-07T10:39:20;31.17;;;19.63;;
64387;SDS011;50709;52.648;4.764;2023-05-07T10:41:46;23.85;;;16.15;;
64387;SDS011;50709;52.648;4.764;2023-05-07T10:44:24;26.48;;;21.17;;
64387;SDS011;50709;52.648;4.764;2023-05-07T10:47:03;29.75;;;21.95;;
64387;SDS011;50709;52.648;4.764;2023-05-07T10:49:30;27.83;;;19.70;;
64387;SDS011;50709;52.648;4.764;2023-05-07T10:57:50;27.25;;;19.23;;
64387;SDS011;50709;52.648;4.764;2023-05-07T11:05:24;28.65;;;18.92;;
64387;SDS011;50709;52.648;4.764;2023-05-07T11:07:59;27.33;;;18.67;;
64387;SDS011;50709;52.648;4.764;2023-05-07T11:13:17;28.60;;;20.83;;
64387;SDS011;50709;52.648;4.764;2023-05-07T11:16:03;26.02;;;18.10;;
64387;SDS011;50709;52.648;4.764;2023-05-07T11:18:45;27.42;;;18.63;;
64387;SDS011;50709;52.648;4.764;2023-05-07T11:21:22;26.85;;;17.40;;
64387;SDS011;50709;52.648;4.764;2023-05-07T11:23:56;23.33;;;16.23;;
64387;SDS011;50709;52.648;4.764;2023-05-07T11:26:23;24.98;;;17.08;;
64387;SDS011;50709;52.648;4.764;2023-05-07T11:28:50;27.02;;;18.00;;
64387;SDS011;50709;52.648;4.764;2023-05-07T11:31:20;26.13;;;16.70;;
64387;SDS011;50709;52.648;4.764;2023-05-07T11:33:48;28.10;;;19.40;;
64387;SDS011;50709;52.648;4.764;2023-05-07T11:36:14;27.75;;;17.95;;
64387;SDS011;50709;52.648;4.764;2023-05-07T11:38:39;25.45;;;18.27;;
64387;SDS011;50709;52.648;4.764;2023-05-07T11:41:05;27.48;;;19.10;;
64387;SDS011;50709;52.648;4.764;2023-05-07T11:43:31;27.92;;;19.27;;
64387;SDS011;50709;52.648;4.764;2023-05-07T11:46:18;27.52;;;19.13;;
64387;SDS011;50709;52.648;4.764;2023-05-07T11:48:43;28.13;;;20.83;;
64387;SDS011;50709;52.648;4.764;2023-05-07T11:51:08;27.42;;;18.70;;
64387;SDS011;50709;52.648;4.764;2023-05-07T11:53:36;25.88;;;17.85;;
64387;SDS011;50709;52.648;4.764;2023-05-07T11:56:10;27.60;;;18.20;;
64387;SDS011;50709;52.648;4.764;2023-05-07T11:58:37;22.17;;;15.95;;
64387;SDS011;50709;52.648;4.764;2023-05-07T12:01:03;26.45;;;18.80;;
64387;SDS011;50709;52.648;4.764;2023-05-07T12:03:28;26.55;;;18.35;;
64387;SDS011;50709;52.648;4.764;2023-05-07T12:05:54;27.73;;;17.38;;
64387;SDS011;50709;52.648;4.764;2023-05-07T12:08:20;23.65;;;16.58;;
64387;SDS011;50709;52.648;4.764;2023-05-07T12:10:48;23.30;;;16.23;;
64387;SDS011;50709;52.648;4.764;2023-05-07T12:13:17;25.83;;;17.20;;
64387;SDS011;50709;52.648;4.764;2023-05-07T12:15:44;24.02;;;16.42;;
64387;SDS011;50709;52.648;4.764;2023-05-07T12:18:10;21.40;;;15.60;;
64387;SDS011;50709;52.648;4.764;2023-05-07T12:20:36;23.80;;;16.40;;
64387;SDS011;50709;52.648;4.764;2023-05-07T12:23:02;26.10;;;17.00;;
64387;SDS011;50709;52.648;4.764;2023-05-07T12:25:31;24.77;;;15.95;;
64387;SDS011;50709;52.648;4.764;2023-05-07T12:28:01;24.48;;;15.80;;
64387;SDS011;50709;52.648;4.764;2023-05-07T12:30:28;22.10;;;15.32;;
64387;SDS011;50709;52.648;4.764;2023-05-07T12:32:54;25.52;;;15.82;;
64387;SDS011;50709;52.648;4.764;2023-05-07T12:35:26;26.35;;;16.92;;
64387;SDS011;50709;52.648;4.764;2023-05-07T12:38:01;26.00;;;16.10;;
64387;SDS011;50709;52.648;4.764;2023-05-07T12:40:35;27.08;;;18.33;;
64387;SDS011;50709;52.648;4.764;2023-05-07T12:43:02;27.05;;;17.35;;
64387;SDS011;50709;52.648;4.764;2023-05-07T12:45:27;28.88;;;19.25;;
64387;SDS011;50709;52.648;4.764;2023-05-07T12:47:53;23.77;;;15.55;;
64387;SDS011;50709;52.648;4.764;2023-05-07T12:50:18;23.48;;;16.25;;
64387;SDS011;50709;52.648;4.764;2023-05-07T12:52:47;26.25;;;15.52;;
64387;SDS011;50709;52.648;4.764;2023-05-07T12:55:16;25.75;;;16.90;;
64387;SDS011;50709;52.648;4.764;2023-05-07T12:57:42;29.88;;;19.42;;
64387;SDS011;50709;52.648;4.764;2023-05-07T13:00:10;25.20;;;17.80;;
64387;SDS011;50709;52.648;4.764;2023-05-07T13:02:39;30.13;;;19.58;;
64387;SDS011;50709;52.648;4.764;2023-05-07T13:05:06;28.73;;;17.80;;
64387;SDS011;50709;52.648;4.764;2023-05-07T13:07:32;30.48;;;19.63;;
64387;SDS011;50709;52.648;4.764;2023-05-07T13:09:58;27.00;;;18.30;;
64387;SDS011;50709;52.648;4.764;2023-05-07T13:12:23;31.90;;;20.75;;
64387;SDS011;50709;52.648;4.764;2023-05-07T13:14:49;28.05;;;19.95;;
64387;SDS011;50709;52.648;4.764;2023-05-07T13:17:14;27.85;;;18.80;;
64387;SDS011;50709;52.648;4.764;2023-05-07T13:19:40;28.25;;;17.77;;
64387;SDS011;50709;52.648;4.764;2023-05-07T13:22:05;29.95;;;19.55;;
64387;SDS011;50709;52.648;4.764;2023-05-07T13:24:31;29.92;;;19.90;;
64387;SDS011;50709;52.648;4.764;2023-05-07T13:26:56;26.70;;;18.38;;
64387;SDS011;50709;52.648;4.764;2023-05-07T13:29:21;29.65;;;17.30;;
64387;SDS011;50709;52.648;4.764;2023-05-07T13:31:53;28.02;;;19.60;;
64387;SDS011;50709;52.648;4.764;2023-05-07T13:34:19;33.20;;;19.77;;
64387;SDS011;50709;52.648;4.764;2023-05-07T13:36:45;30.40;;;19.02;;
64387;SDS011;50709;52.648;4.764;2023-05-07T13:39:11;31.83;;;20.33;;
64387;SDS011;50709;52.648;4.764;2023-05-07T13:41:36;30.40;;;19.00;;
64387;SDS011;50709;52.648;4.764;2023-05-07T13:44:01;30.80;;;19.83;;
64387;SDS011;50709;52.648;4.764;2023-05-07T13:46:27;26.42;;;16.45;;
64387;SDS011;50709;52.648;4.764;2023-05-07T13:48:55;29.75;;;18.95;;
64387;SDS011;50709;52.648;4.764;2023-05-07T13:51:21;28.70;;;18.80;;
64387;SDS011;50709;52.648;4.764;2023-05-07T13:53:47;26.05;;;17.25;;
64387;SDS011;50709;52.648;4.764;2023-05-07T13:56:12;26.75;;;16.33;;
64387;SDS011;50709;52.648;4.764;2023-05-07T13:58:39;25.05;;;16.35;;
64387;SDS011;50709;52.648;4.764;2023-05-07T14:01:07;29.85;;;17.95;;
64387;SDS011;50709;52.648;4.764;2023-05-07T14:03:32;27.52;;;17.60;;
64387;SDS011;50709;52.648;4.764;2023-05-07T14:05:58;26.27;;;17.60;;
64387;SDS011;50709;52.648;4.764;2023-05-07T14:08:26;27.63;;;17.88;;
64387;SDS011;50709;52.648;4.764;2023-05-07T14:10:52;27.75;;;18.23;;
64387;SDS011;50709;52.648;4.764;2023-05-07T14:13:17;28.83;;;17.70;;
64387;SDS011;50709;52.648;4.764;2023-05-07T14:15:42;25.45;;;16.58;;
64387;SDS011;50709;52.648;4.764;2023-05-07T14:18:11;23.60;;;15.57;;
64387;SDS011;50709;52.648;4.764;2023-05-07T14:20:40;24.15;;;15.38;;
64387;SDS011;50709;52.648;4.764;2023-05-07T14:23:08;25.98;;;16.75;;
64387;SDS011;50709;52.648;4.764;2023-05-07T14:25:33;24.08;;;16.20;;
64387;SDS011;50709;52.648;4.764;2023-05-07T14:27:59;26.27;;;16.27;;
64387;SDS011;50709;52.648;4.764;2023-05-07T14:30:24;24.73;;;16.63;;
64387;SDS011;50709;52.648;4.764;2023-05-07T14:32:50;26.40;;;16.55;;
64387;SDS011;50709;52.648;4.764;2023-05-07T14:35:15;26.42;;;16.48;;
64387;SDS011;50709;52.648;4.764;2023-05-07T14:37:42;29.85;;;16.52;;
64387;SDS011;50709;52.648;4.764;2023-05-07T14:40:08;28.40;;;17.92;;
64387;SDS011;50709;52.648;4.764;2023-05-07T14:42:33;23.45;;;15.50;;